createdAt,value
2023-01-26T00:02:21.990Z,101.33
2023-01-26T00:04:49.105Z,92.53
2023-01-26T00:07:16.183Z,89.80
2023-01-26T00:09:43.299Z,105.77
2023-01-26T00:12:10.389Z,97.80
2023-01-26T00:14:50.146Z,92.80
2023-01-26T00:17:25.817Z,93.97
2023-01-26T00:19:57.381Z,93.00
2023-01-26T00:22:25.307Z,87.73
2023-01-26T00:24:52.410Z,98.90
2023-01-26T00:27:19.557Z,89.80
2023-01-26T00:29:46.668Z,90.30
2023-01-26T00:32:13.852Z,94.80
2023-01-26T00:34:41.002Z,92.10
2023-01-26T00:37:08.128Z,86.43
2023-01-26T00:39:35.235Z,91.97
2023-01-26T00:42:13.215Z,93.23
2023-01-26T00:44:41.526Z,91.93
2023-01-26T00:47:09.627Z,92.40
2023-01-26T00:49:37.918Z,91.87
2023-01-26T00:52:06.284Z,91.97
2023-01-26T00:54:33.599Z,80.37
2023-01-26T00:57:00.728Z,88.90
2023-01-26T00:59:28.122Z,93.17
2023-01-26T01:01:55.290Z,97.87
2023-01-26T01:04:22.428Z,89.60
2023-01-26T01:06:49.532Z,83.83
2023-01-26T01:09:16.632Z,82.40
2023-01-26T01:11:45.521Z,87.37
2023-01-26T01:14:13.462Z,87.87
2023-01-26T01:16:41.027Z,87.53
2023-01-26T01:19:08.560Z,88.40
2023-01-26T01:21:36.324Z,86.13
2023-01-26T01:24:03.616Z,91.77
2023-01-26T01:26:30.723Z,93.37
2023-01-26T01:29:03.165Z,86.20
2023-01-26T01:31:30.407Z,89.57
2023-01-26T01:33:57.797Z,89.43
2023-01-26T01:36:24.968Z,80.27
2023-01-26T01:38:52.253Z,87.90
2023-01-26T01:41:20.572Z,90.20
2023-01-26T01:43:47.856Z,82.87
2023-01-26T01:46:21.731Z,80.00
2023-01-26T01:48:58.836Z,82.80
2023-01-26T01:51:38.625Z,88.77
2023-01-26T01:54:12.841Z,85.50
2023-01-26T01:56:42.518Z,82.30
2023-01-26T01:59:10.864Z,77.73
2023-01-26T02:01:38.002Z,89.83
2023-01-26T02:04:06.112Z,80.13
2023-01-26T02:06:50.003Z,87.67
2023-01-26T02:09:37.949Z,84.63
2023-01-26T02:12:07.064Z,84.07
2023-01-26T02:14:34.487Z,87.70
2023-01-26T02:17:01.580Z,83.67
2023-01-26T02:19:35.286Z,82.33
2023-01-26T02:22:08.526Z,83.07
2023-01-26T02:24:37.055Z,79.37
2023-01-26T02:27:04.274Z,88.13
2023-01-26T02:29:31.465Z,81.00
2023-01-26T02:31:58.590Z,77.57
2023-01-26T02:34:28.919Z,77.13
2023-01-26T02:37:00.192Z,78.20
2023-01-26T02:39:50.467Z,73.30
2023-01-26T02:42:36.201Z,78.93
2023-01-26T02:45:03.325Z,83.37
2023-01-26T02:47:30.414Z,82.00
2023-01-26T02:49:58.690Z,86.70
2023-01-26T02:52:26.828Z,89.23
2023-01-26T02:55:13.001Z,79.43
2023-01-26T02:57:40.373Z,83.73
2023-01-26T03:00:12.303Z,75.50
2023-01-26T03:02:40.524Z,80.13
2023-01-26T03:05:07.803Z,76.93
2023-01-26T03:07:34.927Z,83.47
2023-01-26T03:10:02.034Z,82.70
2023-01-26T03:12:29.111Z,86.07
2023-01-26T03:15:14.884Z,88.83
2023-01-26T03:17:41.966Z,92.70
2023-01-26T03:20:29.287Z,90.63
2023-01-26T03:23:15.391Z,87.30
2023-01-26T03:26:01.151Z,80.47
2023-01-26T03:28:28.225Z,87.13
2023-01-26T03:30:56.790Z,79.03
2023-01-26T03:33:24.278Z,78.70
2023-01-26T03:35:53.725Z,87.00
2023-01-26T03:38:20.874Z,81.83
2023-01-26T03:41:06.428Z,82.67
2023-01-26T03:43:52.528Z,78.80
2023-01-26T03:46:38.185Z,82.80
2023-01-26T03:49:24.148Z,80.73
2023-01-26T03:52:10.177Z,85.93
2023-01-26T03:54:56.060Z,84.87
2023-01-26T03:57:23.130Z,80.00
2023-01-26T03:59:50.208Z,85.40
2023-01-26T04:02:35.869Z,92.93
2023-01-26T04:05:21.792Z,88.87
2023-01-26T04:08:07.630Z,80.83
2023-01-26T04:10:34.714Z,81.57
2023-01-26T04:13:20.455Z,81.33
2023-01-26T04:16:09.034Z,87.83
2023-01-26T04:18:54.869Z,82.57
2023-01-26T04:21:33.402Z,88.03
2023-01-26T04:24:01.432Z,84.63
2023-01-26T04:26:34.836Z,86.27
2023-01-26T04:29:07.912Z,86.33
2023-01-26T04:31:35.102Z,85.53
2023-01-26T04:34:02.523Z,86.40
2023-01-26T04:36:29.810Z,85.50
2023-01-26T04:38:57.259Z,84.17
2023-01-26T04:41:24.703Z,89.50
2023-01-26T04:43:51.754Z,88.17
2023-01-26T04:46:18.815Z,83.93
2023-01-26T04:48:45.922Z,74.40
2023-01-26T04:51:14.577Z,84.77
2023-01-26T04:53:41.683Z,81.50
2023-01-26T04:56:09.396Z,82.90
2023-01-26T04:58:36.756Z,91.67
2023-01-26T05:01:03.885Z,84.20
2023-01-26T05:03:30.982Z,79.50
2023-01-26T05:05:58.051Z,82.30
2023-01-26T05:08:25.112Z,86.23
2023-01-26T05:10:52.405Z,80.97
2023-01-26T05:13:19.582Z,92.57
2023-01-26T05:15:47.619Z,83.23
2023-01-26T05:18:15.056Z,84.90
2023-01-26T05:20:42.184Z,81.93
2023-01-26T05:23:09.240Z,77.83
2023-01-26T05:25:36.499Z,86.40
2023-01-26T05:28:03.629Z,88.43
2023-01-26T05:30:30.866Z,97.27
2023-01-26T05:33:02.234Z,80.47
2023-01-26T05:35:29.314Z,86.43
2023-01-26T05:37:56.608Z,88.37
2023-01-26T05:40:24.804Z,79.27
2023-01-26T05:42:51.919Z,79.50
2023-01-26T05:45:19.187Z,83.17
2023-01-26T05:47:46.671Z,79.53
2023-01-26T05:50:14.024Z,77.83
2023-01-26T05:52:41.211Z,82.23
2023-01-26T05:55:08.497Z,85.77
2023-01-26T05:57:36.367Z,65.13
2023-01-26T06:00:04.860Z,72.97
2023-01-26T06:02:32.070Z,77.80
2023-01-26T06:04:59.145Z,77.37
2023-01-26T06:07:29.007Z,76.97
2023-01-26T06:09:56.118Z,69.93
2023-01-26T06:12:23.373Z,73.03
2023-01-26T06:14:50.573Z,74.90
2023-01-26T06:17:18.349Z,69.00
2023-01-26T06:19:45.468Z,70.17
2023-01-26T06:22:13.708Z,73.57
2023-01-26T06:24:40.966Z,74.47
2023-01-26T06:27:12.552Z,73.27
2023-01-26T06:29:39.685Z,66.10
2023-01-26T06:32:06.911Z,71.67
2023-01-26T06:34:34.024Z,77.10
2023-01-26T06:37:01.268Z,73.50
2023-01-26T06:39:28.359Z,67.97
2023-01-26T06:41:55.446Z,68.67
2023-01-26T06:44:22.748Z,73.27
2023-01-26T06:46:49.850Z,72.73
2023-01-26T06:49:16.917Z,66.00
2023-01-26T06:51:46.759Z,72.00
2023-01-26T06:54:14.386Z,65.80
2023-01-26T06:56:41.624Z,64.80
2023-01-26T06:59:10.746Z,65.00
2023-01-26T07:01:40.089Z,64.07
2023-01-26T07:04:07.353Z,71.17
2023-01-26T07:06:34.470Z,71.90
2023-01-26T07:09:01.886Z,65.50
2023-01-26T07:11:30.665Z,66.53
2023-01-26T07:13:58.024Z,69.30
2023-01-26T07:16:25.181Z,63.80
2023-01-26T07:18:54.704Z,64.37
2023-01-26T07:21:23.005Z,69.23
2023-01-26T07:23:54.142Z,61.87
2023-01-26T07:26:21.586Z,61.77
2023-01-26T07:28:48.722Z,68.87
2023-01-26T07:31:15.954Z,58.97
2023-01-26T07:33:43.159Z,60.47
2023-01-26T07:36:11.079Z,60.53
2023-01-26T07:38:38.353Z,62.30
2023-01-26T07:41:06.776Z,56.60
2023-01-26T07:43:34.794Z,61.33
2023-01-26T07:46:01.936Z,59.33
2023-01-26T07:48:31.966Z,57.03
2023-01-26T07:51:00.086Z,61.60
2023-01-26T07:53:29.150Z,60.03
2023-01-26T07:56:06.057Z,56.97
2023-01-26T07:58:33.923Z,56.50
2023-01-26T08:01:12.042Z,54.07
2023-01-26T08:03:39.247Z,52.87
2023-01-26T08:06:07.091Z,56.23
2023-01-26T08:08:34.637Z,56.70
2023-01-26T08:11:03.212Z,58.43
2023-01-26T08:13:35.802Z,50.57
2023-01-26T08:16:12.120Z,56.90
2023-01-26T08:18:39.874Z,49.53
2023-01-26T08:21:07.056Z,54.47
2023-01-26T08:23:34.397Z,57.53
2023-01-26T08:26:02.607Z,52.83
2023-01-26T08:28:29.771Z,52.23
2023-01-26T08:30:57.210Z,52.30
2023-01-26T08:33:24.763Z,53.63
2023-01-26T08:35:51.902Z,57.03
2023-01-26T08:38:19.177Z,54.57
2023-01-26T08:40:51.682Z,51.13
2023-01-26T08:43:18.744Z,46.57
2023-01-26T08:45:47.839Z,49.27
2023-01-26T08:48:15.054Z,41.40
2023-01-26T08:50:42.343Z,41.90
2023-01-26T08:53:09.527Z,43.97
2023-01-26T08:55:36.726Z,39.27
2023-01-26T08:58:04.000Z,38.13
2023-01-26T09:00:31.432Z,38.47
2023-01-26T09:03:02.704Z,41.07
2023-01-26T09:05:32.671Z,36.97
2023-01-26T09:07:59.885Z,37.27
2023-01-26T09:10:27.127Z,36.00
2023-01-26T09:12:54.235Z,36.97
2023-01-26T09:15:21.412Z,33.40
2023-01-26T09:17:51.947Z,30.67
2023-01-26T09:20:19.539Z,31.67
2023-01-26T09:22:47.180Z,27.20
2023-01-26T09:25:14.606Z,24.20
2023-01-26T09:27:41.743Z,22.53
2023-01-26T09:30:09.502Z,23.57
2023-01-26T09:32:36.619Z,21.70
2023-01-26T09:35:03.785Z,21.50
2023-01-26T09:37:31.267Z,22.33
2023-01-26T09:39:58.349Z,21.87
2023-01-26T09:42:31.399Z,18.43
2023-01-26T09:45:13.895Z,18.27
2023-01-26T09:47:43.898Z,19.83
2023-01-26T09:50:11.249Z,22.07
2023-01-26T09:52:43.229Z,19.07
2023-01-26T09:55:15.971Z,19.40
2023-01-26T09:57:58.358Z,20.43
2023-01-26T10:00:38.456Z,20.03
2023-01-26T10:03:17.757Z,16.17
2023-01-26T10:06:03.392Z,17.60
2023-01-26T10:08:31.210Z,19.70
2023-01-26T10:11:02.457Z,18.20
2023-01-26T10:13:30.467Z,20.17
2023-01-26T10:16:25.218Z,19.87
2023-01-26T10:18:55.339Z,17.03
2023-01-26T10:21:24.246Z,17.27
2023-01-26T10:23:52.592Z,16.63
2023-01-26T10:26:20.891Z,16.93
2023-01-26T10:28:49.355Z,14.47
2023-01-26T10:31:21.135Z,16.77
2023-01-26T10:33:57.604Z,17.10
2023-01-26T10:36:25.099Z,14.47
2023-01-26T10:38:52.894Z,15.67
2023-01-26T10:41:24.428Z,18.03
2023-01-26T10:44:11.088Z,19.23
2023-01-26T10:46:39.539Z,16.67
2023-01-26T10:49:09.475Z,19.23
2023-01-26T10:51:37.497Z,18.47
2023-01-26T10:54:13.703Z,19.23
2023-01-26T10:56:45.219Z,17.43
2023-01-26T10:59:14.612Z,21.13
2023-01-26T11:01:52.699Z,19.23
2023-01-26T11:04:19.958Z,17.93
2023-01-26T11:06:47.284Z,17.90
2023-01-26T11:09:14.328Z,17.10
2023-01-26T11:11:42.065Z,16.87
2023-01-26T11:14:13.911Z,15.77
2023-01-26T11:16:42.590Z,12.93
2023-01-26T11:19:14.540Z,14.57
2023-01-26T11:21:52.125Z,17.90
2023-01-26T11:24:26.233Z,13.77
2023-01-26T11:26:59.442Z,12.93
2023-01-26T11:29:55.834Z,15.23
2023-01-26T11:32:43.237Z,18.93
2023-01-26T11:35:28.792Z,20.37
2023-01-26T11:38:22.412Z,16.03
2023-01-26T11:40:58.603Z,12.33
2023-01-26T11:43:28.710Z,13.77
2023-01-26T11:46:02.804Z,17.37
2023-01-26T11:48:33.033Z,12.93
2023-01-26T11:51:06.040Z,12.00
2023-01-26T11:53:52.328Z,13.73
2023-01-26T11:56:26.364Z,13.73
2023-01-26T11:58:59.086Z,9.27
2023-01-26T12:01:28.990Z,12.63
2023-01-26T12:03:56.913Z,15.27
2023-01-26T12:06:41.508Z,14.33
2023-01-26T12:09:23.039Z,10.93
2023-01-26T12:11:50.071Z,13.37
2023-01-26T12:14:17.233Z,11.60
2023-01-26T12:16:44.319Z,11.60
2023-01-26T12:19:11.780Z,12.73
2023-01-26T12:21:40.637Z,12.13
2023-01-26T12:24:35.770Z,10.67
2023-01-26T12:26:58.624Z,10.60
2023-01-26T12:29:31.026Z,14.43
2023-01-26T12:32:14.189Z,12.03
2023-01-26T12:34:41.427Z,10.80
2023-01-26T12:37:22.428Z,13.10
2023-01-26T12:39:55.727Z,10.30
2023-01-26T12:42:22.838Z,9.67
2023-01-26T12:45:00.138Z,14.17
2023-01-26T12:47:40.920Z,13.20
2023-01-26T12:50:26.374Z,14.43
2023-01-26T12:53:06.225Z,13.90
2023-01-26T12:55:56.582Z,14.50
2023-01-26T12:58:25.945Z,17.57
2023-01-26T13:01:04.252Z,18.97
2023-01-26T13:03:42.847Z,37.47
2023-01-26T13:06:15.681Z,18.93
2023-01-26T13:08:53.889Z,26.33
2023-01-26T13:11:47.144Z,21.60
2023-01-26T13:14:33.043Z,30.73
2023-01-26T13:17:32.655Z,33.10
2023-01-26T13:20:00.127Z,21.97
2023-01-26T13:22:27.404Z,42.27
2023-01-26T13:24:57.526Z,27.20
2023-01-26T13:27:47.690Z,34.27
2023-01-26T13:30:24.344Z,34.17
2023-01-26T13:32:51.555Z,38.83
2023-01-26T13:35:21.329Z,35.73
2023-01-26T13:37:51.545Z,47.43
2023-01-26T13:40:18.626Z,44.67
2023-01-26T13:42:51.993Z,37.43
2023-01-26T13:45:24.054Z,40.83
2023-01-26T13:47:51.627Z,40.63
2023-01-26T13:50:23.388Z,41.17
2023-01-26T13:52:50.530Z,49.63
2023-01-26T13:55:25.383Z,43.60
2023-01-26T13:58:11.433Z,40.77
2023-01-26T14:00:38.519Z,47.90
2023-01-26T14:03:05.764Z,42.83
2023-01-26T14:05:35.429Z,42.63
2023-01-26T14:08:03.314Z,52.73
2023-01-26T14:10:30.420Z,42.23
2023-01-26T14:12:57.853Z,40.40
2023-01-26T14:15:30.085Z,52.17
2023-01-26T14:17:59.163Z,43.63
2023-01-26T14:20:26.243Z,64.07
2023-01-26T14:23:23.013Z,51.73
2023-01-26T14:26:01.116Z,43.77
2023-01-26T14:28:31.239Z,47.13
2023-01-26T14:31:02.598Z,47.33
2023-01-26T14:33:30.781Z,47.13
2023-01-26T14:36:02.529Z,48.80
2023-01-26T14:38:32.845Z,55.83
2023-01-26T14:41:00.744Z,60.20
2023-01-26T14:43:28.021Z,65.50
2023-01-26T14:46:04.030Z,47.43
2023-01-26T14:48:36.994Z,56.87
2023-01-26T14:51:06.829Z,53.03
2023-01-26T14:53:34.285Z,45.30
2023-01-26T14:56:01.368Z,56.20
2023-01-26T14:58:30.171Z,52.87
2023-01-26T15:00:58.910Z,55.53
2023-01-26T15:03:43.954Z,53.07
2023-01-26T15:06:13.919Z,42.30
2023-01-26T15:08:42.145Z,56.60
2023-01-26T15:11:41.674Z,50.63
2023-01-26T15:14:25.600Z,54.27
2023-01-26T15:16:53.703Z,49.47
2023-01-26T15:19:25.037Z,42.93
2023-01-26T15:21:52.249Z,40.17
2023-01-26T15:24:19.432Z,53.63
2023-01-26T15:26:46.572Z,53.57
2023-01-26T15:29:32.931Z,55.80
2023-01-26T15:32:00.318Z,46.73
2023-01-26T15:34:32.422Z,43.40
2023-01-26T15:36:59.931Z,46.70
2023-01-26T15:39:27.844Z,53.33
2023-01-26T15:42:13.529Z,52.73
2023-01-26T15:44:40.887Z,48.90
2023-01-26T15:47:12.165Z,48.67
2023-01-26T15:49:39.329Z,56.37
2023-01-26T15:52:16.523Z,60.23
2023-01-26T15:54:43.707Z,46.97
2023-01-26T15:57:14.205Z,53.00
2023-01-26T15:59:41.581Z,33.27
2023-01-26T16:02:15.784Z,44.77
2023-01-26T16:04:43.410Z,46.47
2023-01-26T16:07:14.519Z,42.53
2023-01-26T16:09:42.076Z,50.17
2023-01-26T16:12:31.689Z,46.17
2023-01-26T16:14:59.398Z,37.77
2023-01-26T16:17:26.541Z,55.00
2023-01-26T16:19:53.607Z,46.77
2023-01-26T16:22:20.660Z,54.37
2023-01-26T16:24:47.947Z,48.53
2023-01-26T16:27:15.016Z,38.37
2023-01-26T16:29:42.131Z,39.30
2023-01-26T16:32:19.745Z,32.80
2023-01-26T16:34:46.892Z,48.07
2023-01-26T16:37:13.954Z,41.10
2023-01-26T16:39:41.061Z,45.80
2023-01-26T16:42:10.534Z,51.37
2023-01-26T16:44:37.614Z,54.13
2023-01-26T16:47:05.559Z,52.50
2023-01-26T16:49:33.897Z,41.77
2023-01-26T16:52:00.989Z,51.00
2023-01-26T16:54:28.078Z,57.40
2023-01-26T16:56:55.150Z,63.50
2023-01-26T16:59:22.224Z,55.30
2023-01-26T17:01:49.327Z,52.20
2023-01-26T17:04:16.404Z,45.57
2023-01-26T17:06:43.441Z,45.47
2023-01-26T17:09:10.630Z,43.37
2023-01-26T17:11:37.695Z,47.43
2023-01-26T17:14:04.782Z,40.90
2023-01-26T17:16:34.976Z,39.80
2023-01-26T17:19:02.147Z,37.37
2023-01-26T17:21:29.217Z,39.77
2023-01-26T17:23:57.462Z,34.43
2023-01-26T17:26:24.614Z,42.67
2023-01-26T17:28:54.337Z,34.40
2023-01-26T17:31:22.266Z,34.97
2023-01-26T17:33:50.077Z,33.10
2023-01-26T17:36:18.046Z,30.37
2023-01-26T17:38:45.173Z,38.87
2023-01-26T17:41:12.380Z,35.37
2023-01-26T17:43:39.488Z,36.03
2023-01-26T17:46:12.200Z,43.47
2023-01-26T17:48:39.384Z,32.47
2023-01-26T17:51:10.558Z,36.97
2023-01-26T17:53:41.232Z,32.03
2023-01-26T17:56:09.373Z,32.23
2023-01-26T17:58:37.034Z,35.23
2023-01-26T18:01:04.896Z,38.47
2023-01-26T18:03:32.001Z,36.73
2023-01-26T18:05:59.250Z,28.20
2023-01-26T18:08:27.017Z,26.63
2023-01-26T18:10:58.014Z,28.30
2023-01-26T18:13:25.136Z,31.80
2023-01-26T18:15:52.391Z,27.83
2023-01-26T18:18:19.497Z,26.80
2023-01-26T18:20:46.641Z,21.53
2023-01-26T18:23:13.705Z,23.77
2023-01-26T18:25:41.084Z,25.23
2023-01-26T18:28:08.395Z,22.40
2023-01-26T18:30:35.519Z,27.73
2023-01-26T18:33:02.648Z,21.50
2023-01-26T18:35:29.738Z,23.23
2023-01-26T18:37:56.912Z,22.97
2023-01-26T18:40:24.057Z,19.50
2023-01-26T18:42:54.162Z,21.87
2023-01-26T18:45:21.280Z,27.10
2023-01-26T18:47:49.216Z,25.67
2023-01-26T18:50:16.821Z,22.50
2023-01-26T18:52:43.905Z,19.93
2023-01-26T18:55:11.674Z,20.67
2023-01-26T18:57:39.054Z,21.17
2023-01-26T19:00:08.070Z,23.97
2023-01-26T19:02:38.334Z,26.90
2023-01-26T19:05:06.724Z,24.77
2023-01-26T19:07:33.846Z,27.50
2023-01-26T19:10:01.027Z,28.33
2023-01-26T19:12:28.123Z,22.13
2023-01-26T19:14:55.286Z,22.87
2023-01-26T19:17:22.374Z,17.20
2023-01-26T19:19:49.460Z,16.97
2023-01-26T19:22:16.553Z,20.03
2023-01-26T19:24:43.664Z,17.23
2023-01-26T19:27:10.757Z,14.43
2023-01-26T19:29:37.878Z,14.50
2023-01-26T19:32:05.098Z,11.63
2023-01-26T19:34:33.683Z,16.20
2023-01-26T19:37:00.873Z,13.00
2023-01-26T19:39:27.947Z,14.53
2023-01-26T19:41:55.058Z,9.97
2023-01-26T19:44:22.121Z,9.27
2023-01-26T19:46:51.395Z,14.03
2023-01-26T19:49:20.085Z,10.60
2023-01-26T19:51:47.170Z,6.50
2023-01-26T19:54:14.658Z,19.53
2023-01-26T19:56:41.907Z,7.50
2023-01-26T19:59:12.906Z,6.90
2023-01-26T20:01:40.149Z,12.27
2023-01-26T20:04:09.044Z,11.10
2023-01-26T20:06:37.002Z,16.90
2023-01-26T20:09:04.749Z,27.77
2023-01-26T20:11:32.115Z,18.10
2023-01-26T20:14:00.320Z,21.90
2023-01-26T20:16:28.191Z,9.10
2023-01-26T20:18:56.080Z,12.50
2023-01-26T20:21:23.314Z,9.93
2023-01-26T20:23:55.032Z,8.23
2023-01-26T20:26:23.400Z,6.03
2023-01-26T20:28:50.578Z,8.53
2023-01-26T20:31:18.979Z,6.00
2023-01-26T20:33:47.942Z,11.00
2023-01-26T20:36:19.099Z,11.47
2023-01-26T20:38:47.368Z,5.33
2023-01-26T20:41:16.163Z,9.40
2023-01-26T20:43:57.412Z,8.23
2023-01-26T20:46:26.829Z,8.60
2023-01-26T20:48:55.561Z,8.80
2023-01-26T20:51:24.261Z,7.07
2023-01-26T20:53:51.735Z,11.40
2023-01-26T20:56:21.210Z,9.07
2023-01-26T20:58:48.440Z,7.00
2023-01-26T21:01:16.975Z,7.27
2023-01-26T21:03:44.531Z,8.70
2023-01-26T21:06:13.313Z,8.70
2023-01-26T21:08:40.521Z,10.50
2023-01-26T21:11:08.469Z,6.50
2023-01-26T21:13:36.052Z,9.53
2023-01-26T21:16:03.701Z,5.00
2023-01-26T21:18:30.874Z,8.03
2023-01-26T21:20:58.679Z,8.20
2023-01-26T21:23:25.837Z,9.50
2023-01-26T21:25:59.487Z,11.27
2023-01-26T21:28:26.697Z,8.80
2023-01-26T21:31:01.677Z,8.80
2023-01-26T21:33:29.512Z,8.67
2023-01-26T21:35:57.239Z,8.57
2023-01-26T21:38:24.465Z,10.07
2023-01-26T21:41:45.444Z,12.20
2023-01-26T21:44:16.488Z,11.00
2023-01-26T21:46:45.720Z,11.87
2023-01-26T21:49:13.389Z,13.27
2023-01-26T21:51:58.974Z,14.53
2023-01-26T21:54:26.151Z,11.70
2023-01-26T21:56:53.322Z,10.77
2023-01-26T21:59:20.377Z,14.23
2023-01-26T22:01:49.402Z,10.03
2023-01-26T22:04:18.913Z,14.77
2023-01-26T22:06:46.038Z,13.33
2023-01-26T22:09:13.797Z,13.43
2023-01-26T22:11:41.347Z,12.30
2023-01-26T22:14:09.207Z,14.30
2023-01-26T22:16:36.368Z,17.13
2023-01-26T22:19:03.904Z,20.00
2023-01-26T22:21:32.615Z,9.90
2023-01-26T22:23:59.692Z,11.10
2023-01-26T22:26:26.765Z,10.60
2023-01-26T22:28:54.644Z,13.60
2023-01-26T22:31:23.002Z,11.37
2023-01-26T22:33:51.339Z,10.73
2023-01-26T22:36:18.884Z,12.83
2023-01-26T22:38:46.569Z,11.30
2023-01-26T22:41:15.527Z,11.13
2023-01-26T22:43:42.922Z,15.93
2023-01-26T22:46:14.509Z,17.60
2023-01-26T22:48:42.525Z,18.30
2023-01-26T22:51:13.681Z,14.10
2023-01-26T22:53:41.418Z,14.50
2023-01-26T22:56:09.242Z,11.87
2023-01-26T22:58:47.751Z,15.23
2023-01-26T23:01:23.097Z,12.83
2023-01-26T23:03:54.127Z,14.50
2023-01-26T23:06:21.488Z,17.17
2023-01-26T23:08:48.556Z,12.43
2023-01-26T23:11:17.817Z,12.37
2023-01-26T23:13:46.077Z,16.67
2023-01-26T23:16:13.516Z,16.33
2023-01-26T23:18:41.060Z,13.67
2023-01-26T23:21:08.821Z,13.33
2023-01-26T23:23:36.009Z,13.47
2023-01-26T23:26:03.442Z,11.20
2023-01-26T23:28:32.624Z,12.97
2023-01-26T23:30:59.852Z,16.00
2023-01-26T23:33:27.899Z,15.37
2023-01-26T23:35:55.247Z,13.13
2023-01-26T23:38:22.985Z,16.87
2023-01-26T23:40:50.874Z,14.47
2023-01-26T23:43:18.740Z,17.63
2023-01-26T23:45:46.736Z,17.30
2023-01-26T23:48:13.845Z,12.47
2023-01-26T23:50:41.148Z,14.70
2023-01-26T23:53:08.274Z,13.23
2023-01-26T23:55:35.423Z,14.03
2023-01-26T23:58:02.598Z,13.40
